Time;durP1;ratioP1;P1;durP2;ratioP2;P2;SDS_P1;SDS_P2;PMS_P1;PMS_P2;Temp;Humidity;BMP_temperature;BMP_pressure;BME280_temperature;BME280_humidity;BME280_pressure;Samples;Min_cycle;Max_cycle;Signal;HPM_P1;HPM_P2
2023/06/03 00:01:19;;;;;;;3.58;1.52;;;;;;;;;;5091530;28;20450;-72
2023/06/03 00:03:46;;;;;;;5.32;1.63;;;;;;;;;;5091485;28;20436;-72
2023/06/03 00:06:12;;;;;;;1.95;1.00;;;;;;;;;;5091484;28;20038;-70
2023/06/03 00:08:39;;;;;;;4.18;1.20;;;;;;;;;;5091317;28;20077;-68
2023/06/03 00:11:05;;;;;;;4.00;1.63;;;;;;;;;;5091280;28;20052;-71
2023/06/03 00:13:30;;;;;;;6.85;1.17;;;;;;;;;;5091208;28;20059;-72
2023/06/03 00:15:56;;;;;;;2.85;1.08;;;;;;;;;;5091213;28;20030;-71
2023/06/03 00:18:21;;;;;;;2.72;1.05;;;;;;;;;;5091074;28;20031;-71
2023/06/03 00:20:47;;;;;;;4.15;1.30;;;;;;;;;;5091052;28;20020;-64
2023/06/03 00:23:16;;;;;;;4.65;1.25;;;;;;;;;;5091143;28;20035;-65
2023/06/03 00:25:41;;;;;;;3.55;1.33;;;;;;;;;;5091326;28;20024;-68
2023/06/03 00:28:07;;;;;;;4.88;1.30;;;;;;;;;;5090798;28;20103;-66
2023/06/03 00:30:33;;;;;;;2.97;1.15;;;;;;;;;;5090092;28;20024;-69
2023/06/03 00:32:58;;;;;;;3.28;1.10;;;;;;;;;;5091205;28;20043;-72
2023/06/03 00:35:24;;;;;;;2.85;1.20;;;;;;;;;;5090974;28;20054;-65
2023/06/03 00:37:49;;;;;;;2.70;1.27;;;;;;;;;;5090661;28;20036;-71
2023/06/03 00:40:15;;;;;;;3.38;1.10;;;;;;;;;;5109058;28;20547;-64
2023/06/03 00:42:40;;;;;;;3.10;1.40;;;;;;;;;;5111039;28;20368;-63
2023/06/03 00:45:06;;;;;;;3.63;1.40;;;;;;;;;;5111246;28;20026;-64
2023/06/03 00:47:32;;;;;;;2.33;1.00;;;;;;;;;;5111012;28;20097;-65
2023/06/03 00:49:58;;;;;;;2.67;1.30;;;;;;;;;;5111122;28;20055;-68
2023/06/03 00:52:24;;;;;;;3.45;1.35;;;;;;;;;;5111164;28;20031;-66
2023/06/03 00:54:51;;;;;;;6.20;1.88;;;;;;;;;;5111087;28;20023;-64
2023/06/03 00:57:20;;;;;;;5.25;1.80;;;;;;;;;;5110651;28;20035;-65
2023/06/03 00:59:45;;;;;;;6.47;2.22;;;;;;;;;;5096810;28;20036;-61
2023/06/03 01:02:12;;;;;;;5.20;1.55;;;;;;;;;;5090728;28;20085;-60
2023/06/03 01:04:38;;;;;;;8.30;1.60;;;;;;;;;;5090445;28;20058;-60
2023/06/03 01:07:11;;;;;;;6.40;1.50;;;;;;;;;;5090638;28;20557;-61
2023/06/03 01:10:11;;;;;;;6.00;1.52;;;;;;;;;;5090624;28;20029;-60
2023/06/03 01:12:57;;;;;;;5.07;1.48;;;;;;;;;;5090267;28;20020;-65
2023/06/03 01:15:26;;;;;;;5.47;1.55;;;;;;;;;;5090509;28;20111;-64
2023/06/03 01:17:53;;;;;;;8.38;1.45;;;;;;;;;;5090474;28;20032;-70
2023/06/03 01:20:26;;;;;;;4.07;1.60;;;;;;;;;;5089307;28;20103;-62
2023/06/03 01:22:56;;;;;;;4.47;1.20;;;;;;;;;;5090603;28;20028;-67
2023/06/03 01:25:23;;;;;;;3.10;1.27;;;;;;;;;;5090373;28;20111;-67
2023/06/03 01:27:49;;;;;;;2.65;1.27;;;;;;;;;;5090641;28;20040;-62
2023/06/03 01:30:17;;;;;;;4.57;1.17;;;;;;;;;;5090539;28;20094;-60
2023/06/03 01:32:46;;;;;;;2.10;1.00;;;;;;;;;;5090247;28;20021;-62
2023/06/03 01:35:12;;;;;;;3.63;1.20;;;;;;;;;;5090354;28;20046;-62
2023/06/03 01:37:40;;;;;;;3.88;1.20;;;;;;;;;;5090071;28;20363;-62
2023/06/03 01:40:07;;;;;;;6.25;1.25;;;;;;;;;;5106961;28;20549;-65
2023/06/03 01:42:33;;;;;;;1.80;1.00;;;;;;;;;;5112799;28;20031;-61
2023/06/03 01:45:01;;;;;;;3.28;0.88;;;;;;;;;;5114542;28;20034;-63
2023/06/03 01:47:27;;;;;;;3.42;1.13;;;;;;;;;;5114386;27;20515;-60
2023/06/03 01:49:55;;;;;;;4.80;1.17;;;;;;;;;;5114547;28;20031;-64
2023/06/03 01:52:21;;;;;;;4.90;1.13;;;;;;;;;;5114529;28;20024;-62
2023/06/03 01:54:46;;;;;;;2.58;1.10;;;;;;;;;;5114252;28;20484;-60
2023/06/03 01:57:12;;;;;;;4.50;1.10;;;;;;;;;;5114371;28;20031;-61
2023/06/03 01:59:37;;;;;;;3.60;1.17;;;;;;;;;;5101372;28;20023;-60
2023/06/03 02:02:03;;;;;;;2.92;1.25;;;;;;;;;;5094085;28;20031;-67
2023/06/03 02:04:29;;;;;;;1.75;1.00;;;;;;;;;;5093627;28;20073;-64
2023/06/03 02:06:58;;;;;;;3.15;1.10;;;;;;;;;;5093962;28;20028;-61
2023/06/03 02:09:24;;;;;;;4.38;1.30;;;;;;;;;;5093633;28;20040;-61
2023/06/03 02:11:51;;;;;;;3.53;1.30;;;;;;;;;;5093846;28;20545;-63
2023/06/03 02:14:17;;;;;;;3.10;1.02;;;;;;;;;;5093904;28;20089;-71
2023/06/03 02:16:42;;;;;;;2.22;1.25;;;;;;;;;;5093475;28;20469;-71
2023/06/03 02:19:16;;;;;;;5.03;1.20;;;;;;;;;;5093644;28;20024;-71
2023/06/03 02:21:42;;;;;;;2.85;1.20;;;;;;;;;;5093516;28;20512;-71
2023/06/03 02:24:09;;;;;;;2.00;1.10;;;;;;;;;;5093264;28;20335;-71
2023/06/03 02:26:35;;;;;;;6.57;1.40;;;;;;;;;;5093203;28;20366;-71
2023/06/03 02:29:01;;;;;;;3.63;1.00;;;;;;;;;;5093304;28;20051;-71
2023/06/03 02:31:27;;;;;;;2.15;1.15;;;;;;;;;;5093290;28;20465;-72
2023/06/03 02:33:53;;;;;;;4.88;1.50;;;;;;;;;;5093267;28;20043;-72
2023/06/03 02:36:18;;;;;;;3.85;1.30;;;;;;;;;;5092930;28;20052;-72
2023/06/03 02:38:49;;;;;;;6.10;1.30;;;;;;;;;;5098113;28;20023;-70
2023/06/03 02:41:15;;;;;;;5.10;1.52;;;;;;;;;;5113633;28;20313;-71
2023/06/03 02:43:41;;;;;;;2.92;1.20;;;;;;;;;;5113442;28;20026;-72
2023/06/03 02:46:06;;;;;;;2.75;1.17;;;;;;;;;;5113158;28;20087;-72
2023/06/03 02:48:32;;;;;;;9.82;2.08;;;;;;;;;;5113275;28;20077;-71
2023/06/03 02:50:58;;;;;;;5.20;1.40;;;;;;;;;;5113095;28;20066;-72
2023/06/03 02:53:23;;;;;;;8.82;1.25;;;;;;;;;;5112253;28;20031;-72
2023/06/03 02:55:49;;;;;;;5.13;1.30;;;;;;;;;;5113129;28;20362;-72
2023/06/03 02:58:15;;;;;;;4.43;1.38;;;;;;;;;;5111725;27;20524;-68
2023/06/03 03:00:41;;;;;;;4.38;1.20;;;;;;;;;;5092761;28;20031;-74
2023/06/03 03:03:06;;;;;;;3.47;1.48;;;;;;;;;;5092579;28;20020;-70
2023/06/03 03:05:32;;;;;;;1.98;1.15;;;;;;;;;;5092502;28;20105;-67
2023/06/03 03:08:01;;;;;;;6.40;1.10;;;;;;;;;;5092293;28;20085;-68
2023/06/03 03:10:26;;;;;;;2.50;1.20;;;;;;;;;;5092554;28;20016;-72
2023/06/03 03:12:52;;;;;;;2.67;1.05;;;;;;;;;;5092671;28;20393;-72
2023/06/03 03:15:17;;;;;;;2.83;1.00;;;;;;;;;;5092509;28;20350;-72
2023/06/03 03:17:43;;;;;;;4.10;1.33;;;;;;;;;;5092279;28;20488;-72
2023/06/03 03:20:09;;;;;;;4.03;1.20;;;;;;;;;;5092171;28;20024;-68
2023/06/03 03:22:39;;;;;;;3.28;1.20;;;;;;;;;;5092041;28;20035;-70
2023/06/03 03:25:05;;;;;;;2.58;1.17;;;;;;;;;;5092339;28;20370;-71
2023/06/03 03:27:31;;;;;;;4.07;1.33;;;;;;;;;;5092368;28;20133;-71
2023/06/03 03:29:59;;;;;;;3.50;1.13;;;;;;;;;;5092289;28;20028;-71
2023/06/03 03:32:24;;;;;;;3.47;1.27;;;;;;;;;;5092028;28;20042;-71
2023/06/03 03:35:11;;;;;;;3.97;1.35;;;;;;;;;;5092042;28;20020;-69
2023/06/03 03:37:36;;;;;;;4.13;1.13;;;;;;;;;;5091595;28;20119;-72
2023/06/03 03:40:05;;;;;;;3.70;1.23;;;;;;;;;;5108561;28;20058;-71
2023/06/03 03:42:31;;;;;;;2.17;1.10;;;;;;;;;;5112257;28;20084;-67
2023/06/03 03:44:59;;;;;;;3.63;1.23;;;;;;;;;;5112363;27;20372;-68
2023/06/03 03:47:24;;;;;;;3.25;1.20;;;;;;;;;;5112038;28;20042;-70
2023/06/03 03:49:50;;;;;;;6.90;1.10;;;;;;;;;;5112414;28;20019;-71
2023/06/03 03:52:23;;;;;;;5.53;1.25;;;;;;;;;;5111916;28;20023;-69
2023/06/03 03:54:49;;;;;;;2.30;1.10;;;;;;;;;;5112189;28;20311;-71
2023/06/03 03:57:16;;;;;;;2.25;1.10;;;;;;;;;;5111798;28;20034;-69
2023/06/03 03:59:42;;;;;;;1.80;1.08;;;;;;;;;;5098175;28;20499;-70
2023/06/03 04:02:07;;;;;;;2.08;1.17;;;;;;;;;;5091580;28;20024;-67
2023/06/03 04:04:38;;;;;;;2.72;1.20;;;;;;;;;;5090739;28;20081;-70
2023/06/03 04:07:04;;;;;;;2.67;1.17;;;;;;;;;;5089303;28;20085;-70
2023/06/03 04:09:30;;;;;;;4.53;1.17;;;;;;;;;;5091737;28;20080;-70
2023/06/03 04:11:55;;;;;;;5.32;1.42;;;;;;;;;;5091512;28;20404;-67
2023/06/03 04:14:44;;;;;;;3.60;1.27;;;;;;;;;;5091380;28;20024;-71
2023/06/03 04:17:12;;;;;;;6.07;1.05;;;;;;;;;;5091094;28;20028;-72
2023/06/03 04:19:41;;;;;;;3.35;1.08;;;;;;;;;;5090570;28;20028;-71
2023/06/03 04:22:08;;;;;;;5.78;1.60;;;;;;;;;;5091178;28;20020;-67
2023/06/03 04:24:35;;;;;;;1.77;1.00;;;;;;;;;;5090979;28;20020;-72
2023/06/03 04:27:02;;;;;;;2.50;1.05;;;;;;;;;;5091376;28;20031;-70
2023/06/03 04:29:28;;;;;;;2.22;1.02;;;;;;;;;;5089834;28;20048;-71
2023/06/03 04:31:54;;;;;;;2.25;1.20;;;;;;;;;;5091243;28;20067;-69
2023/06/03 04:34:19;;;;;;;3.63;1.10;;;;;;;;;;5090981;28;20028;-68
2023/06/03 04:36:45;;;;;;;3.70;1.20;;;;;;;;;;5090739;28;20642;-73
2023/06/03 04:39:11;;;;;;;2.92;1.10;;;;;;;;;;5100143;28;20035;-73
2023/06/03 04:41:37;;;;;;;4.25;1.33;;;;;;;;;;5111239;28;20043;-66
2023/06/03 04:44:08;;;;;;;3.22;1.10;;;;;;;;;;5111274;28;20437;-68
2023/06/03 04:46:35;;;;;;;;;;;;;;;;;;5111477;28;20044;-66
2023/06/03 04:49:03;;;;;;;2.88;1.20;;;;;;;;;;5110905;28;19984;-73
2023/06/03 04:51:34;;;;;;;2.13;1.20;;;;;;;;;;5110326;28;20024;-74
2023/06/03 04:54:01;;;;;;;4.53;1.10;;;;;;;;;;5090558;28;20016;-72
2023/06/03 04:56:30;;;;;;;4.30;1.08;;;;;;;;;;5090834;28;20114;-73
2023/06/03 04:59:03;;;;;;;3.38;1.10;;;;;;;;;;5090718;28;20095;-73
2023/06/03 05:01:31;;;;;;;3.92;1.23;;;;;;;;;;5090804;28;20024;-65
2023/06/03 05:03:57;;;;;;;2.78;1.35;;;;;;;;;;5090668;28;20017;-66
2023/06/03 05:06:23;;;;;;;4.47;1.30;;;;;;;;;;5090664;28;20036;-66
2023/06/03 05:08:49;;;;;;;2.25;1.40;;;;;;;;;;5090608;28;20128;-66
2023/06/03 05:11:16;;;;;;;3.40;1.20;;;;;;;;;;5090382;28;20028;-70
2023/06/03 05:13:41;;;;;;;4.70;1.70;;;;;;;;;;5090538;28;20062;-69
2023/06/03 05:16:07;;;;;;;2.72;1.20;;;;;;;;;;5090575;28;20071;-70
2023/06/03 05:18:33;;;;;;;3.03;1.30;;;;;;;;;;5094171;28;20028;-73
2023/06/03 05:20:58;;;;;;;2.17;1.17;;;;;;;;;;5094705;28;20149;-70
2023/06/03 05:23:23;;;;;;;4.05;1.10;;;;;;;;;;5094457;28;20032;-65
2023/06/03 05:25:49;;;;;;;4.03;1.33;;;;;;;;;;5094434;28;20027;-63
2023/06/03 05:28:14;;;;;;;3.38;1.00;;;;;;;;;;5094499;28;20016;-69
2023/06/03 05:30:40;;;;;;;4.32;1.40;;;;;;;;;;5094383;28;20099;-74
2023/06/03 05:33:05;;;;;;;5.72;1.30;;;;;;;;;;5094175;28;20016;-68
2023/06/03 05:35:31;;;;;;;5.30;1.27;;;;;;;;;;5094524;28;20506;-66
2023/06/03 05:37:56;;;;;;;4.03;1.25;;;;;;;;;;5093941;28;20028;-72
2023/06/03 05:40:22;;;;;;;2.15;1.20;;;;;;;;;;5113754;28;20035;-74
2023/06/03 05:42:47;;;;;;;3.47;1.30;;;;;;;;;;5114241;28;20461;-69
2023/06/03 05:45:13;;;;;;;3.78;1.27;;;;;;;;;;5114464;27;20024;-71
2023/06/03 05:47:39;;;;;;;5.45;1.20;;;;;;;;;;5113972;28;20038;-71
2023/06/03 05:50:05;;;;;;;1.95;0.90;;;;;;;;;;5114472;27;20024;-74
2023/06/03 05:52:31;;;;;;;2.50;1.05;;;;;;;;;;5114381;28;20022;-73
2023/06/03 05:54:56;;;;;;;2.97;1.30;;;;;;;;;;5114338;28;20023;-72
2023/06/03 05:57:23;;;;;;;2.25;0.90;;;;;;;;;;5114242;28;20051;-73
2023/06/03 05:59:50;;;;;;;3.42;1.35;;;;;;;;;;5099500;28;20107;-71
2023/06/03 06:02:17;;;;;;;4.35;1.40;;;;;;;;;;5093630;28;20052;-74
2023/06/03 06:04:42;;;;;;;4.03;1.23;;;;;;;;;;5093605;28;20120;-72
2023/06/03 06:07:08;;;;;;;3.72;1.10;;;;;;;;;;5093686;28;20107;-72
2023/06/03 06:09:33;;;;;;;2.15;0.93;;;;;;;;;;5088269;28;20054;-73
2023/06/03 06:11:59;;;;;;;2.10;1.00;;;;;;;;;;5086620;28;20032;-70
2023/06/03 06:14:24;;;;;;;3.95;1.65;;;;;;;;;;5093290;28;20491;-72
2023/06/03 06:16:51;;;;;;;5.07;1.20;;;;;;;;;;5092604;28;20040;-71
2023/06/03 06:19:17;;;;;;;2.53;1.20;;;;;;;;;;5090001;28;20093;-73
2023/06/03 06:21:42;;;;;;;2.75;1.13;;;;;;;;;;5092939;28;20478;-71
2023/06/03 06:24:07;;;;;;;4.70;1.50;;;;;;;;;;5093076;28;20409;-71
2023/06/03 06:26:33;;;;;;;7.53;1.40;;;;;;;;;;5093118;28;20414;-73
2023/06/03 06:29:00;;;;;;;3.25;1.20;;;;;;;;;;5092037;28;20447;-71
2023/06/03 06:31:27;;;;;;;2.05;1.02;;;;;;;;;;5092846;28;20029;-74
2023/06/03 06:33:53;;;;;;;2.08;0.90;;;;;;;;;;5093143;28;20028;-73
2023/06/03 06:36:39;;;;;;;3.63;1.33;;;;;;;;;;5092877;28;20074;-68
2023/06/03 06:39:18;;;;;;;3.97;1.30;;;;;;;;;;5101485;28;20480;-68
2023/06/03 06:41:43;;;;;;;2.05;1.10;;;;;;;;;;5113457;28;20035;-66
2023/06/03 06:44:09;;;;;;;4.50;1.10;;;;;;;;;;5113588;28;20034;-71
2023/06/03 06:46:37;;;;;;;2.45;0.90;;;;;;;;;;5112905;28;20047;-72
2023/06/03 06:49:02;;;;;;;4.95;0.93;;;;;;;;;;5113154;28;20027;-71
2023/06/03 06:51:29;;;;;;;2.22;0.80;;;;;;;;;;5113146;28;20484;-69
2023/06/03 06:53:58;;;;;;;3.50;1.08;;;;;;;;;;5113047;28;20479;-65
2023/06/03 06:56:25;;;;;;;3.47;0.90;;;;;;;;;;5112833;28;20020;-69
2023/06/03 06:58:51;;;;;;;1.45;0.80;;;;;;;;;;5106314;28;20023;-71
2023/06/03 07:01:16;;;;;;;3.28;1.00;;;;;;;;;;5092564;28;20393;-75
2023/06/03 07:03:42;;;;;;;4.72;0.90;;;;;;;;;;5092597;28;20024;-71
2023/06/03 07:06:07;;;;;;;4.13;2.08;;;;;;;;;;5092493;28;20158;-71
2023/06/03 07:08:33;;;;;;;4.15;1.33;;;;;;;;;;5092493;28;20024;-68
2023/06/03 07:11:01;;;;;;;2.40;1.58;;;;;;;;;;5092323;28;20032;-70
2023/06/03 07:13:27;;;;;;;3.08;0.95;;;;;;;;;;5084450;28;20681;-73
2023/06/03 07:15:52;;;;;;;4.18;1.42;;;;;;;;;;5077841;28;20079;-64
2023/06/03 07:18:19;;;;;;;1.55;0.80;;;;;;;;;;5074684;28;20384;-68
2023/06/03 07:20:46;;;;;;;1.90;0.90;;;;;;;;;;5078084;28;20085;-68
2023/06/03 07:23:18;;;;;;;2.45;0.85;;;;;;;;;;5094307;28;20100;-70
2023/06/03 07:25:46;;;;;;;1.67;0.90;;;;;;;;;;5092952;28;20022;-68
2023/06/03 07:28:13;;;;;;;1.45;1.00;;;;;;;;;;5092545;28;20108;-65
2023/06/03 07:30:40;;;;;;;2.28;0.98;;;;;;;;;;5093426;28;20032;-72
2023/06/03 07:33:07;;;;;;;1.67;1.00;;;;;;;;;;5093407;28;20501;-70
2023/06/03 07:35:37;;;;;;;1.42;0.90;;;;;;;;;;5093519;28;20115;-68
2023/06/03 07:38:39;;;;;;;2.17;0.82;;;;;;;;;;5094621;28;20486;-68
2023/06/03 07:41:06;;;;;;;1.38;0.90;;;;;;;;;;5019665;28;20423;-70
2023/06/03 07:43:32;;;;;;;3.08;1.10;;;;;;;;;;5024856;28;20533;-72
2023/06/03 07:46:05;;;;;;;2.88;1.10;;;;;;;;;;5028662;28;20037;-70
2023/06/03 07:48:30;;;;;;;4.97;1.10;;;;;;;;;;5028777;28;20080;-70
2023/06/03 07:50:56;;;;;;;2.13;1.10;;;;;;;;;;5016614;28;20424;-67
2023/06/03 07:53:24;;;;;;;2.83;0.90;;;;;;;;;;5025353;28;20589;-64
2023/06/03 07:55:50;;;;;;;2.35;0.82;;;;;;;;;;5009039;28;20041;-63
2023/06/03 07:58:16;;;;;;;5.68;1.45;;;;;;;;;;5010021;28;20046;-69
2023/06/03 08:00:44;;;;;;;8.50;1.23;;;;;;;;;;5028553;28;20033;-69
2023/06/03 08:03:14;;;;;;;3.40;1.00;;;;;;;;;;5028751;28;20029;-68
2023/06/03 08:05:41;;;;;;;3.13;0.90;;;;;;;;;;5028597;28;20033;-68
2023/06/03 08:08:10;;;;;;;2.15;1.00;;;;;;;;;;5028466;28;20376;-65
2023/06/03 08:10:36;;;;;;;2.13;1.05;;;;;;;;;;5028435;28;20037;-71
2023/06/03 08:13:02;;;;;;;3.13;1.33;;;;;;;;;;5028098;28;20029;-68
2023/06/03 08:15:32;;;;;;;4.18;1.60;;;;;;;;;;5028190;28;20037;-69
2023/06/03 08:17:59;;;;;;;6.75;1.88;;;;;;;;;;5053966;28;20042;-61
2023/06/03 08:20:28;;;;;;;2.97;1.10;;;;;;;;;;5091047;28;20031;-62
2023/06/03 08:22:57;;;;;;;7.63;1.27;;;;;;;;;;5090869;28;20536;-62
2023/06/03 08:25:23;;;;;;;2.83;1.00;;;;;;;;;;5090147;28;20044;-64
2023/06/03 08:27:49;;;;;;;4.47;0.90;;;;;;;;;;5090374;28;20612;-64
2023/06/03 08:30:15;;;;;;;4.70;0.85;;;;;;;;;;5091050;28;20108;-62
2023/06/03 08:32:42;;;;;;;1.90;0.80;;;;;;;;;;5090873;28;20047;-62
2023/06/03 08:35:09;;;;;;;2.72;1.20;;;;;;;;;;5090305;28;20107;-64
2023/06/03 08:37:35;;;;;;;4.03;1.10;;;;;;;;;;5089199;28;20036;-61
2023/06/03 08:40:06;;;;;;;2.30;0.90;;;;;;;;;;5105739;28;20069;-65
2023/06/03 08:42:39;;;;;;;2.22;0.90;;;;;;;;;;5110137;28;20102;-67
2023/06/03 08:45:09;;;;;;;3.67;1.30;;;;;;;;;;5110573;28;20111;-61
2023/06/03 08:47:50;;;;;;;1.33;0.80;;;;;;;;;;5110285;28;20509;-68
2023/06/03 08:50:19;;;;;;;6.68;1.20;;;;;;;;;;5110987;28;20027;-69
2023/06/03 08:52:45;;;;;;;3.90;1.17;;;;;;;;;;5110272;28;20079;-66
2023/06/03 08:55:14;;;;;;;5.18;1.02;;;;;;;;;;5110803;28;20027;-65
2023/06/03 08:57:55;;;;;;;1.90;0.80;;;;;;;;;;5110931;28;20114;-62
2023/06/03 09:00:23;;;;;;;2.67;0.85;;;;;;;;;;5092195;28;20093;-67
2023/06/03 09:02:51;;;;;;;3.50;1.00;;;;;;;;;;5090537;28;20027;-66
2023/06/03 09:05:16;;;;;;;2.58;0.88;;;;;;;;;;5090533;28;20021;-61
2023/06/03 09:07:45;;;;;;;1.92;0.90;;;;;;;;;;5090532;28;20031;-66
2023/06/03 09:10:11;;;;;;;1.50;0.90;;;;;;;;;;5090165;28;20046;-60
2023/06/03 09:12:37;;;;;;;1.27;0.90;;;;;;;;;;5090476;28;20111;-60
2023/06/03 09:15:04;;;;;;;1.33;0.90;;;;;;;;;;5090442;28;20362;-60
2023/06/03 09:17:29;;;;;;;2.15;1.00;;;;;;;;;;5090536;28;20347;-62
2023/06/03 09:20:01;;;;;;;1.67;0.82;;;;;;;;;;5090221;28;20024;-60
2023/06/03 09:22:27;;;;;;;1.90;0.90;;;;;;;;;;5090437;28;20073;-62
2023/06/03 09:24:53;;;;;;;2.13;0.90;;;;;;;;;;5089981;28;20030;-60
2023/06/03 09:27:18;;;;;;;2.92;0.88;;;;;;;;;;5089897;28;20020;-61
2023/06/03 09:29:44;;;;;;;2.40;1.15;;;;;;;;;;5090260;28;20026;-61
2023/06/03 09:32:09;;;;;;;1.83;1.08;;;;;;;;;;5090151;28;20020;-60
2023/06/03 09:34:36;;;;;;;3.17;1.10;;;;;;;;;;5090260;28;20086;-60
2023/06/03 09:37:08;;;;;;;2.80;0.90;;;;;;;;;;5089970;28;20032;-60
2023/06/03 09:39:35;;;;;;;1.67;0.95;;;;;;;;;;5102465;28;20028;-60
2023/06/03 09:42:01;;;;;;;2.47;1.00;;;;;;;;;;5110513;28;20048;-61
2023/06/03 09:44:42;;;;;;;3.30;1.17;;;;;;;;;;5110581;28;20122;-60
2023/06/03 09:47:09;;;;;;;3.03;0.90;;;;;;;;;;5110265;28;20036;-60
2023/06/03 09:49:35;;;;;;;2.38;1.00;;;;;;;;;;5109151;28;20096;-61
2023/06/03 09:52:01;;;;;;;2.58;1.30;;;;;;;;;;5110487;28;20019;-62
2023/06/03 09:54:26;;;;;;;4.15;1.00;;;;;;;;;;5110117;28;20047;-60
2023/06/03 09:56:52;;;;;;;5.32;1.00;;;;;;;;;;5110346;28;20122;-60
2023/06/03 09:59:23;;;;;;;3.15;0.95;;;;;;;;;;5100619;28;20028;-60
2023/06/03 10:01:52;;;;;;;5.03;1.00;;;;;;;;;;5090236;28;20023;-60
2023/06/03 10:04:42;;;;;;;2.22;0.73;;;;;;;;;;5093709;28;20026;-62
2023/06/03 10:07:12;;;;;;;;;;;;;;;;;;5093960;28;20077;-62
2023/06/03 10:09:38;;;;;;;2.60;0.90;;;;;;;;;;5093330;28;19968;-61
2023/06/03 10:12:04;;;;;;;2.92;1.00;;;;;;;;;;5093701;28;20031;-65
2023/06/03 10:14:30;;;;;;;3.55;1.10;;;;;;;;;;5093538;28;20039;-62
2023/06/03 10:17:02;;;;;;;1.92;1.00;;;;;;;;;;5093876;28;20028;-62
2023/06/03 10:19:28;;;;;;;2.10;0.90;;;;;;;;;;5093435;28;20384;-61
2023/06/03 10:21:55;;;;;;;2.30;1.05;;;;;;;;;;5093218;28;20501;-64
2023/06/03 10:24:21;;;;;;;3.08;0.82;;;;;;;;;;5093413;28;20063;-69
2023/06/03 10:26:47;;;;;;;2.00;0.82;;;;;;;;;;5093465;28;20385;-62
2023/06/03 10:29:14;;;;;;;2.53;0.73;;;;;;;;;;5093265;28;20031;-68
2023/06/03 10:31:40;;;;;;;2.83;0.63;;;;;;;;;;5093173;28;20034;-68
2023/06/03 10:34:06;;;;;;;1.80;1.00;;;;;;;;;;5093160;28;20465;-64
2023/06/03 10:36:32;;;;;;;3.70;0.80;;;;;;;;;;5092555;28;20236;-69
2023/06/03 10:39:05;;;;;;;1.85;0.73;;;;;;;;;;5100388;28;20035;-70
2023/06/03 10:41:30;;;;;;;2.15;0.90;;;;;;;;;;5109824;28;20024;-72
2023/06/03 10:43:56;;;;;;;2.22;0.82;;;;;;;;;;5093099;28;20519;-69
2023/06/03 10:46:21;;;;;;;1.50;0.80;;;;;;;;;;5092921;28;20059;-62
2023/06/03 10:48:48;;;;;;;1.88;0.88;;;;;;;;;;5092885;28;20028;-62
2023/06/03 10:51:37;;;;;;;1.13;0.70;;;;;;;;;;5092632;28;20449;-68
2023/06/03 10:54:40;;;;;;;2.67;1.15;;;;;;;;;;5091619;28;20053;-64
2023/06/03 10:57:10;;;;;;;4.13;0.80;;;;;;;;;;5092526;28;20489;-62
2023/06/03 10:59:45;;;;;;;3.30;0.90;;;;;;;;;;5092698;28;20028;-62
2023/06/03 11:02:13;;;;;;;1.45;0.70;;;;;;;;;;5092722;28;20028;-67
2023/06/03 11:04:40;;;;;;;2.47;0.80;;;;;;;;;;5092452;28;20462;-72
2023/06/03 11:07:30;;;;;;;2.47;1.00;;;;;;;;;;5092170;28;20466;-64
2023/06/03 11:09:56;;;;;;;2.45;1.05;;;;;;;;;;5092620;28;20036;-62
2023/06/03 11:12:49;;;;;;;2.83;0.93;;;;;;;;;;5092577;28;20543;-64
2023/06/03 11:15:14;;;;;;;2.25;0.90;;;;;;;;;;5091587;28;20038;-61
2023/06/03 11:17:42;;;;;;;2.22;0.82;;;;;;;;;;5092261;28;20027;-65
2023/06/03 11:20:08;;;;;;;2.72;1.00;;;;;;;;;;5091976;28;20335;-61
2023/06/03 11:22:37;;;;;;;4.47;1.05;;;;;;;;;;5092177;28;20512;-62
2023/06/03 11:25:03;;;;;;;2.27;1.20;;;;;;;;;;5092249;28;20028;-62
2023/06/03 11:27:30;;;;;;;1.13;0.80;;;;;;;;;;5091857;28;20769;-65
2023/06/03 11:29:57;;;;;;;2.72;0.82;;;;;;;;;;5091875;28;20111;-63
2023/06/03 11:32:43;;;;;;;1.27;0.90;;;;;;;;;;5091923;28;20059;-61
2023/06/03 11:35:08;;;;;;;1.98;0.85;;;;;;;;;;5090118;28;20160;-61
2023/06/03 11:37:49;;;;;;;1.42;0.80;;;;;;;;;;5091669;28;20052;-65
2023/06/03 11:40:20;;;;;;;4.43;0.80;;;;;;;;;;5110236;28;20032;-61
2023/06/03 11:42:51;;;;;;;1.42;0.90;;;;;;;;;;5112226;28;20504;-68
2023/06/03 11:45:17;;;;;;;2.50;0.77;;;;;;;;;;5112402;28;20023;-70
2023/06/03 11:47:52;;;;;;;3.10;0.70;;;;;;;;;;5112117;28;20046;-62
2023/06/03 11:50:19;;;;;;;1.77;0.70;;;;;;;;;;5112167;27;20473;-71
2023/06/03 11:52:44;;;;;;;1.23;0.70;;;;;;;;;;5111817;28;20023;-72
2023/06/03 11:55:10;;;;;;;7.50;0.90;;;;;;;;;;5111529;28;20064;-71
2023/06/03 11:57:37;;;;;;;3.72;0.77;;;;;;;;;;5091593;28;20024;-72
2023/06/03 12:00:06;;;;;;;2.40;0.50;;;;;;;;;;5091599;28;20036;-72
2023/06/03 12:02:40;;;;;;;1.27;0.52;;;;;;;;;;5091520;28;20076;-71
2023/06/03 12:05:07;;;;;;;1.02;0.70;;;;;;;;;;5091368;28;20028;-67
2023/06/03 12:07:32;;;;;;;1.50;0.57;;;;;;;;;;5091138;28;20032;-72
2023/06/03 12:09:58;;;;;;;1.73;0.60;;;;;;;;;;5091169;28;20457;-72
2023/06/03 12:12:24;;;;;;;1.02;0.60;;;;;;;;;;5091335;28;20085;-71
2023/06/03 12:14:49;;;;;;;1.15;0.60;;;;;;;;;;5089881;28;20034;-72
2023/06/03 12:17:18;;;;;;;3.53;0.70;;;;;;;;;;5091021;28;20039;-73
2023/06/03 12:19:49;;;;;;;1.55;0.63;;;;;;;;;;5090838;28;20497;-70
2023/06/03 12:22:21;;;;;;;1.67;0.77;;;;;;;;;;5091182;28;20023;-68
2023/06/03 12:24:47;;;;;;;1.70;0.70;;;;;;;;;;5089831;28;20100;-72
2023/06/03 12:27:22;;;;;;;1.58;0.60;;;;;;;;;;5089908;28;20062;-72
2023/06/03 12:29:50;;;;;;;1.90;0.60;;;;;;;;;;5091009;28;20362;-72
2023/06/03 12:32:16;;;;;;;2.17;0.70;;;;;;;;;;5090882;28;20024;-72
2023/06/03 12:34:43;;;;;;;1.13;0.68;;;;;;;;;;5090954;28;20055;-68
2023/06/03 12:37:11;;;;;;;0.80;0.40;;;;;;;;;;5090651;28;20278;-72
2023/06/03 12:39:50;;;;;;;1.10;0.57;;;;;;;;;;5103563;28;20042;-69
2023/06/03 12:42:18;;;;;;;0.70;0.60;;;;;;;;;;5111275;28;20090;-72
2023/06/03 12:44:48;;;;;;;0.57;0.55;;;;;;;;;;5110683;28;20491;-72
2023/06/03 12:47:15;;;;;;;0.77;0.55;;;;;;;;;;5110560;28;20044;-63
2023/06/03 12:49:42;;;;;;;1.80;0.77;;;;;;;;;;5111177;28;20049;-72
2023/06/03 12:52:13;;;;;;;1.35;0.80;;;;;;;;;;5111321;28;20030;-72
2023/06/03 12:54:44;;;;;;;2.20;0.65;;;;;;;;;;5110866;28;20039;-73
2023/06/03 12:57:09;;;;;;;1.75;0.90;;;;;;;;;;5107455;28;20452;-72
2023/06/03 12:59:53;;;;;;;1.77;0.80;;;;;;;;;;5094844;28;20052;-72
2023/06/03 13:02:18;;;;;;;1.55;0.70;;;;;;;;;;5078451;28;20484;-71
2023/06/03 13:04:44;;;;;;;1.13;0.70;;;;;;;;;;5091705;28;20024;-60
2023/06/03 13:07:09;;;;;;;0.73;0.50;;;;;;;;;;5091572;28;20020;-69
2023/06/03 13:09:34;;;;;;;3.00;0.88;;;;;;;;;;5090188;28;20043;-66
2023/06/03 13:12:00;;;;;;;2.65;0.50;;;;;;;;;;5093859;28;20023;-70
2023/06/03 13:14:25;;;;;;;1.25;0.52;;;;;;;;;;5091831;28;20027;-71
2023/06/03 13:16:51;;;;;;;1.00;0.70;;;;;;;;;;5091310;28;20034;-67
2023/06/03 13:19:16;;;;;;;1.85;0.52;;;;;;;;;;5091595;28;20047;-70
2023/06/03 13:21:42;;;;;;;1.25;0.63;;;;;;;;;;5092999;28;20028;-71
2023/06/03 13:24:07;;;;;;;1.75;0.70;;;;;;;;;;5091616;28;20426;-68
2023/06/03 13:26:32;;;;;;;1.70;0.77;;;;;;;;;;5101543;28;20387;-65
2023/06/03 13:28:58;;;;;;;3.83;0.73;;;;;;;;;;5101052;28;20481;-69
2023/06/03 13:31:24;;;;;;;1.40;0.50;;;;;;;;;;5095764;28;20035;-70
2023/06/03 13:33:49;;;;;;;2.30;0.77;;;;;;;;;;5106647;28;20062;-70
2023/06/03 13:36:15;;;;;;;0.77;0.50;;;;;;;;;;5090051;28;20379;-70
2023/06/03 13:38:40;;;;;;;0.57;0.43;;;;;;;;;;5097392;28;20359;-71
2023/06/03 13:41:06;;;;;;;0.88;0.57;;;;;;;;;;5114582;28;20031;-70
2023/06/03 13:43:31;;;;;;;1.88;0.68;;;;;;;;;;5114523;28;20028;-71
2023/06/03 13:45:58;;;;;;;0.93;0.50;;;;;;;;;;5114349;28;20084;-70
2023/06/03 13:48:24;;;;;;;1.85;0.75;;;;;;;;;;5113741;28;20043;-65
2023/06/03 13:50:49;;;;;;;0.90;0.50;;;;;;;;;;5114410;27;20099;-69
2023/06/03 13:53:15;;;;;;;0.63;0.45;;;;;;;;;;5114334;28;20031;-70
2023/06/03 13:55:40;;;;;;;0.57;0.50;;;;;;;;;;5114433;28;20024;-70
2023/06/03 13:58:08;;;;;;;1.00;0.68;;;;;;;;;;5114271;28;20035;-68
2023/06/03 14:00:33;;;;;;;1.67;0.80;;;;;;;;;;5073292;28;20032;-70
2023/06/03 14:02:59;;;;;;;1.00;0.60;;;;;;;;;;5073439;28;20371;-64
2023/06/03 14:05:24;;;;;;;2.50;0.50;;;;;;;;;;5073453;28;20489;-71
2023/06/03 14:07:51;;;;;;;0.95;0.60;;;;;;;;;;5073122;28;20352;-70
2023/06/03 14:10:16;;;;;;;3.25;0.70;;;;;;;;;;5072146;28;20024;-68
2023/06/03 14:12:42;;;;;;;2.05;0.80;;;;;;;;;;5073283;28;20031;-69
2023/06/03 14:15:08;;;;;;;0.98;0.60;;;;;;;;;;5073204;28;20132;-71
2023/06/03 14:17:33;;;;;;;1.95;0.70;;;;;;;;;;5073453;28;20415;-65
2023/06/03 14:19:59;;;;;;;0.98;0.55;;;;;;;;;;5086767;28;20466;-72
2023/06/03 14:22:24;;;;;;;2.08;0.68;;;;;;;;;;5093435;28;20453;-69
2023/06/03 14:24:50;;;;;;;2.53;0.50;;;;;;;;;;5093273;28;20031;-71
2023/06/03 14:27:15;;;;;;;2.95;0.70;;;;;;;;;;5092966;28;20393;-71
2023/06/03 14:29:41;;;;;;;0.47;0.40;;;;;;;;;;5093105;28;20031;-66
2023/06/03 14:32:06;;;;;;;2.38;0.80;;;;;;;;;;5093330;28;20055;-73
2023/06/03 14:34:32;;;;;;;1.42;0.68;;;;;;;;;;5093498;28;20028;-71
2023/06/03 14:36:57;;;;;;;0.90;0.50;;;;;;;;;;5092911;28;20036;-62
2023/06/03 14:39:23;;;;;;;1.27;0.65;;;;;;;;;;5104051;28;20110;-68
2023/06/03 14:41:48;;;;;;;1.23;0.70;;;;;;;;;;5113640;28;20027;-69
2023/06/03 14:44:16;;;;;;;3.10;0.50;;;;;;;;;;5113380;28;20488;-64
2023/06/03 14:46:41;;;;;;;1.63;0.70;;;;;;;;;;5113031;28;20044;-72